KEAT/EAT METAR and TAF weather

Enter ICAO airport designator
Station Type Date Time Source
KEAT METAR 2020/04/09 18:55 UTC NOAA

KEAT 091855Z AUTO 00000KT 10SM CLR 16/M01 A3008 RMK AO2 SLP187 T01561006


Station Type Date Time Source
KEAT Decoded METAR 2020/04/09 18:55 UTC NOAA

WENATCHEE PANGBORN MEMO, WA, United States (KEAT) 47-24N 120-12W 377M
Apr 09, 2020 - 02:55 PM EDT / 2020.04.09 1855 UTC
Wind: Calm:0
Visibility: 10 mile(s):0
Sky conditions: clear
Temperature: 60.1 F (15.6 C)
Dew Point: 30.9 F (-0.6 C)
Relative Humidity: 33%
Pressure (altimeter): 30.08 in. Hg (1018 hPa)
ob: KEAT 091855Z AUTO 00000KT 10SM CLR 16/M01 A3008 RMK AO2 SLP187 T01561006
cycle: 19

Station Type Date Time Source
KEAT TAF 2020/04/09 18:22 UTC NOAA

TAF KEAT 091720Z 0918/1018 27005KT P6SM SCT250
FM092000 11006KT P6SM SCT250
FM100200 31008KT P6SM SCT250

Example: see airport list